CheckWX is a tool to help pilots better visualize weather data.  It is not intended as a substitute for an official pre-flight weather briefing.

10:52:39 UTC

KDPA TAF
Dupage Airport
Chicago/West Chicago, Illinois, USA
KDPA 170527Z 1706/1806 17006KT P6SM OVC150 TEMPO 1710/1713 5SM BR FM171800 19008KT P6SM VCSH FEW030 OVC060 FM172100 20006KT 6SM -RA BR BKN025 OVC040 FM180300 22005KT 6SM -DZ BR BKN015 OVC030

Nov-17@
06:00 UTC

Nov-17 @ 06:00 UTC

Nov-17@
18:00 UTC

Nov-17 @ 18:00 UTC

KDPA 170527Z 1706/1806 17006KT P6SM OVC150
Wind
  • 170° at 6 KTS
Cloud Levels
  • Overcast at 15,000' AGL

Nov-17@
10:00 UTC

Nov-17 @ 10:00 UTC

Nov-17@
13:00 UTC

Nov-17 @ 13:00 UTC

TEMPO 1710/1713 5SM BR

Temporary

Temporary Changes expected for less than half the time period

Conditions
Mist

Nov-17@
18:00 UTC

Nov-17 @ 18:00 UTC

Nov-17@
21:00 UTC

Nov-17 @ 21:00 UTC

FM171800 19008KT P6SM VCSH FEW030 OVC060

From

From Standard forecast or significant change

Wind
  • 190° at 8 KTS
Cloud Levels
  • Few at 3,000' AGL
  • Overcast at 6,000' AGL

Nov-17@
21:00 UTC

Nov-17 @ 21:00 UTC

Nov-18@
03:00 UTC

Nov-18 @ 03:00 UTC

FM172100 20006KT 6SM -RA BR BKN025 OVC040

From

From Standard forecast or significant change

Wind
  • 200° at 6 KTS
Conditions
Light Rain, Mist
Cloud Levels
  • Broken at 2,500' AGL
  • Overcast at 4,000' AGL

Nov-18@
03:00 UTC

Nov-18 @ 03:00 UTC

Nov-18@
06:00 UTC

Nov-18 @ 06:00 UTC

FM180300 22005KT 6SM -DZ BR BKN015 OVC030

From

From Standard forecast or significant change

Wind
  • 220° at 5 KTS
Conditions
Light Drizzle, Mist
Cloud Levels
  • Broken at 1,500' AGL
  • Overcast at 3,000' AGL